Map

Track Data

SID SEASON NUMBER BASIN SUBBASIN NAME ISO_TIME NATURE LAT LON WMO_WIND WMO_PRES WMO_AGENCY TRACK_TYPE DIST2LAND LANDFALL IFLAG USA_AGENCY USA_ATCF_ID USA_LAT USA_LON USA_RECORD USA_STATUS USA_WIND USA_PRES USA_SSHS USA_R34_NE USA_R34_SE USA_R34_SW USA_R34_NW USA_R50_NE USA_R50_SE USA_R50_SW USA_R50_NW USA_R64_NE USA_R64_SE USA_R64_SW USA_R64_NW USA_POCI USA_ROCI USA_RMW USA_EYE TOKYO_LAT TOKYO_LON TOKYO_GRADE TOKYO_WIND TOKYO_PRES TOKYO_R50_DIR TOKYO_R50_LONG TOKYO_R50_SHORT TOKYO_R30_DIR TOKYO_R30_LONG TOKYO_R30_SHORT TOKYO_LAND CMA_LAT CMA_LON CMA_CAT CMA_WIND CMA_PRES HKO_LAT HKO_LON HKO_CAT HKO_WIND HKO_PRES NEWDELHI_LAT NEWDELHI_LON NEWDELHI_GRADE NEWDELHI_WIND NEWDELHI_PRES NEWDELHI_CI NEWDELHI_DP NEWDELHI_POCI REUNION_LAT REUNION_LON REUNION_TYPE REUNION_WIND REUNION_PRES REUNION_TNUM REUNION_CI REUNION_RMW REUNION_R34_NE REUNION_R34_SE REUNION_R34_SW REUNION_R34_NW REUNION_R50_NE REUNION_R50_SE REUNION_R50_SW REUNION_R50_NW REUNION_R64_NE REUNION_R64_SE REUNION_R64_SW REUNION_R64_NW BOM_LAT BOM_LON BOM_TYPE BOM_WIND BOM_PRES BOM_TNUM BOM_CI BOM_RMW BOM_R34_NE BOM_R34_SE BOM_R34_SW BOM_R34_NW BOM_R50_NE BOM_R50_SE BOM_R50_SW BOM_R50_NW BOM_R64_NE BOM_R64_SE BOM_R64_SW BOM_R64_NW BOM_ROCI BOM_POCI BOM_EYE BOM_POS_METHOD BOM_PRES_METHOD NADI_LAT NADI_LON NADI_CAT NADI_WIND NADI_PRES WELLINGTON_LAT WELLINGTON_LON WELLINGTON_WIND WELLINGTON_PRES DS824_LAT DS824_LON DS824_STAGE DS824_WIND DS824_PRES TD9636_LAT TD9636_LON TD9636_STAGE TD9636_WIND TD9636_PRES TD9635_LAT TD9635_LON TD9635_WIND TD9635_PRES TD9635_ROCI NEUMANN_LAT NEUMANN_LON NEUMANN_CLASS NEUMANN_WIND NEUMANN_PRES MLC_LAT MLC_LON MLC_CLASS MLC_WIND MLC_PRES USA_GUST BOM_GUST BOM_GUST_PER REUNION_GUST REUNION_GUST_PER USA_SEAHGT USA_SEARAD_NE USA_SEARAD_SE USA_SEARAD_SW USA_SEARAD_NW STORM_SPEED STORM_DIR
1957035S11189 1957 15 SP MM NOT_NAMED 1957-02-03 12:00:00 TS -11.2000 -170.800 main 310 299 O________OO___ jtwc_sh SH201957 -11.2000 -170.800 -1 -11.2000 189.200 TC -11.2000 -170.800 1 5 144
1957035S11189 1957 15 SP MM NOT_NAMED 1957-02-03 15:00:00 TS -11.3990 -170.648 main 305 296 P________PP___ SH201957 -11.4000 -170.653 -1 -11.4000 -170.653 TC -11.3970 -170.639 1 5 143
1957035S11189 1957 15 SP MM NOT_NAMED 1957-02-03 18:00:00 TS -11.5984 -170.494 main 296 288 O________OP___ jtwc_sh SH201957 -11.6000 -170.500 -1 -11.6000 189.500 TC -11.5951 -170.483 1 5 143
1957035S11189 1957 15 SP MM NOT_NAMED 1957-02-03 21:00:00 TS -11.7986 -170.340 main 296 288 P________PP___ SH201957 -11.8000 -170.342 -1 -11.8000 -170.342 TC -11.7957 -170.335 1 5 144
1957035S11189 1957 15 SP MM NOT_NAMED 1957-02-04 00:00:00 TS -12.0000 -170.200 main 288 281 O________OO___ jtwc_sh SH201957 -12.0000 -170.200 -1 -12.0000 189.800 TC -12.0000 -170.200 1 5 149
1957035S11189 1957 15 SP MM NOT_NAMED 1957-02-04 03:00:00 TS -12.2027 -170.089 main 282 276 P________PP___ SH201957 -12.2000 -170.092 -1 -12.2000 -170.092 TC -12.2081 -170.082 1 5 153
1957035S11189 1957 15 SP MM NOT_NAMED 1957-02-04 06:00:00 TS -12.4050 -169.992 main 279 273 O________OP___ jtwc_sh SH201957 -12.4000 -170.000 -1 -12.4000 190.000 TC -12.4150 -169.977 1 5 155
1957035S11189 1957 15 SP MM NOT_NAMED 1957-02-04 09:00:00 TS -12.6098 -169.895 main 277 273 P________PP___ SH201957 -12.6075 -169.900 -1 -12.6075 -169.900 TC -12.6143 -169.885 1 4 154
1957035S11189 1957 15 SP MM NOT_NAMED 1957-02-04 12:00:00 TS -12.8000 -169.800 main 278 274 O________OO___ jtwc_sh SH201957 -12.8000 -169.800 -1 -12.8000 190.200 TC -12.8000 -169.800 1 4 150
1957035S11189 1957 15 SP MM NOT_NAMED 1957-02-04 15:00:00 TS -12.9476 -169.697 main 285 281 P________PP___ SH201957 -12.9575 -169.693 -1 -12.9575 -169.693 TC -12.9278 -169.706 1 3 146
1957035S11189 1957 15 SP MM NOT_NAMED 1957-02-04 18:00:00 TS -13.0825 -169.607 main 289 286 O________OP___ jtwc_sh SH201957 -13.1000 -169.600 -1 -13.1000 190.400 TC -13.0475 -169.620 1 3 150
1957035S11189 1957 15 SP MM NOT_NAMED 1957-02-04 21:00:00 TS -13.2111 -169.540 main 297 293 P________PP___ SH201957 -13.2200 -169.535 -1 -13.2200 -169.535 TC -13.1934 -169.549 1 3 162
1957035S11189 1957 15 SP MM NOT_NAMED 1957-02-05 00:00:00 TS -13.4000 -169.500 main 293 291 O________OO___ jtwc_sh SH201957 -13.4000 -169.500 -1 -13.4000 190.500 TC -13.4000 -169.500 1 5 173
1957035S11189 1957 15 SP MM NOT_NAMED 1957-02-05 03:00:00 TS -13.7172 -169.484 main 291 291 P________PP___ SH201957 -13.7125 -169.492 -1 -13.7125 -169.492 TC -13.7265 -169.466 1 7 178
1957035S11189 1957 15 SP MM NOT_NAMED 1957-02-05 06:00:00 TS -14.1042 -169.485 main 293 293 O________OP___ jtwc_sh SH201957 -14.1000 -169.500 -1 -14.1000 190.500 TC -14.1125 -169.455 1 8 0
1957035S11189 1957 15 SP MM NOT_NAMED 1957-02-05 09:00:00 TS -14.5157 -169.484 main 301 301 P________PP___ SH201957 -14.5150 -169.493 -1 -14.5150 -169.493 TC -14.5172 -169.466 1 8 182
1957035S11189 1957 15 SP MM NOT_NAMED 1957-02-05 12:00:00 TS -14.9000 -169.500 main 315 315 O________OO___ jtwc_sh SH201957 -14.9000 -169.500 -1 -14.9000 190.500 TC -14.9000 -169.500 1 7 185
1957035S11189 1957 15 SP MM NOT_NAMED 1957-02-05 15:00:00 TS -15.1617 -169.536 main 330 320 P________PP___ SH201957 -15.1650 -169.535 -1 -15.1650 -169.535 TC -15.1550 -169.538 1 5 191
1957035S11189 1957 15 SP MM NOT_NAMED 1957-02-05 18:00:00 TS -15.3967 -169.599 main 332 332 O________OP___ jtwc_sh SH201957 -15.4000 -169.600 -1 -15.4000 190.400 TC -15.3900 -169.598 1 5 195
1957035S11189 1957 15 SP MM NOT_NAMED 1957-02-05 21:00:00 TS -15.6550 -169.680 main 342 342 P________PP___ SH201957 -15.6550 -169.678 -1 -15.6550 -169.678 TC -15.6550 -169.685 1 6 198
1957035S11189 1957 15 SP MM NOT_NAMED 1957-02-06 00:00:00 TS -16.0000 -169.800 main 356 356 O________OO___ jtwc_sh SH201957 -16.0000 -169.800 -1 -16.0000 190.200 TC -16.0000 -169.800 1 9 199
1957035S11189 1957 15 SP MM NOT_NAMED 1957-02-06 03:00:00 TS -16.5010 -169.984 main 383 383 P________PP___ SH201957 -16.5051 -169.992 -1 -16.5051 -169.992 TC -16.4930 -169.966 1 12 199
1957035S11189 1957 15 SP MM NOT_NAMED 1957-02-06 06:00:00 TS -17.0893 -170.185 main 427 427 O________OP___ jtwc_sh SH201957 -17.1000 -170.200 -1 -17.1000 189.800 TC -17.0678 -170.156 1 13 197
1957035S11189 1957 15 SP MM NOT_NAMED 1957-02-06 09:00:00 TS -17.6946 -170.363 main 477 477 P________PP___ SH201957 -17.7000 -170.372 -1 -17.7000 -170.372 TC -17.6837 -170.344 1 13 194
1957035S11189 1957 15 SP MM NOT_NAMED 1957-02-06 12:00:00 TS -18.3000 -170.500 main 535 535 O________OO___ jtwc_sh SH201957 -18.3000 -170.500 -1 -18.3000 189.500 TC -18.3000 -170.500 1 12 190
1957035S11189 1957 15 SP MM NOT_NAMED 1957-02-06 15:00:00 TS -18.8533 -170.571 main 595 595 P________PP___ SH201957 -18.8575 -170.565 -1 -18.8575 -170.565 TC -18.8449 -170.583 1 11 185
1957035S11189 1957 15 SP MM NOT_NAMED 1957-02-06 18:00:00 TS -19.3950 -170.610 main 649 649 O________OP___ jtwc_sh SH201957 -19.4000 -170.600 -1 -19.4000 189.400 TC -19.3849 -170.631 1 11 184
1957035S11189 1957 15 SP MM NOT_NAMED 1957-02-06 21:00:00 TS -19.9341 -170.655 main 701 701 P________PP___ SH201957 -19.9350 -170.650 -1 -19.9350 -170.650 TC -19.9324 -170.664 1 11 185
1957035S11189 1957 15 SP MM NOT_NAMED 1957-02-07 00:00:00 TS -20.5000 -170.700 main 766 766 O________OO___ jtwc_sh SH201957 -20.5000 -170.700 -1 -20.5000 189.300 TC -20.5000 -170.700 1 12 185
1957035S11189 1957 15 SP MM NOT_NAMED 1957-02-07 03:00:00 TS -21.1362 -170.759 main 830 830 P________PP___ SH201957 -21.1425 -170.743 -1 -21.1425 -170.743 TC -21.1237 -170.791 1 13 185
1957035S11189 1957 15 SP MM NOT_NAMED 1957-02-07 06:00:00 TS -21.7883 -170.829 main 907 907 O________OP___ jtwc_sh SH201957 -21.8000 -170.800 -1 -21.8000 189.200 TC -21.7650 -170.886 1 13 187
1957035S11189 1957 15 SP MM NOT_NAMED 1957-02-07 09:00:00 TS -22.4146 -170.926 main 971 971 P________PP___ SH201957 -22.4225 -170.907 -1 -22.4225 -170.907 TC -22.3988 -170.963 1 12 187
1957035S11189 1957 15 SP MM NOT_NAMED 1957-02-07 12:00:00 TS -23.0000 -171.000 main 1037 1037 O________OO___ jtwc_sh SH201957 -23.0000 -171.000 -1 -23.0000 189.000 TC -23.0000 -171.000 1 11 185
1957035S11189 1957 15 SP MM NOT_NAMED 1957-02-07 15:00:00 TS -23.5218 -171.028 main 1092 1092 P________PP___ SH201957 -23.5150 -171.037 -1 -23.5150 -171.037 TC -23.5356 -171.008 1 10 179
1957035S11189 1957 15 SP MM NOT_NAMED 1957-02-07 18:00:00 TS -24.0123 -170.990 main 1147 1147 O________OP___ jtwc_sh SH201957 -24.0000 -171.000 -1 -24.0000 189.000 TC -24.0370 -170.969 1 10 173
1957035S11189 1957 15 SP MM NOT_NAMED 1957-02-07 21:00:00 TS -24.5066 -170.887 main 1204 1204 P________PP___ SH201957 -24.4999 -170.895 -1 -24.4999 -170.895 TC -24.5199 -170.870 1 10 165
1957035S11189 1957 15 SP MM NOT_NAMED 1957-02-08 00:00:00 TS -25.0000 -170.700 main 1262 1262 O________OO___ jtwc_sh SH201957 -25.0000 -170.700 -1 -25.0000 189.300 TC -25.0000 -170.700 1 11 158
1957035S11189 1957 15 SP MM NOT_NAMED 1957-02-08 03:00:00 TS -25.5137 -170.435 main 1322 1322 P________PP___ SH201957 -25.5000 -170.430 -1 -25.5000 -170.430 TC -25.5409 -170.444 1 12 152
1957035S11189 1957 15 SP MM NOT_NAMED 1957-02-08 06:00:00 TS -26.0252 -170.107 main 1381 1381 O________OP___ jtwc_sh SH201957 -26.0000 -170.100 -1 -26.0000 189.900 TC -26.0755 -170.120 1 12 149
1957035S11189 1957 15 SP MM NOT_NAMED 1957-02-08 09:00:00 TS -26.5441 -169.753 main 1442 1442 P________PP___ SH201957 -26.5300 -169.750 -1 -26.5300 -169.750 TC -26.5722 -169.760 1 12 147
1957035S11189 1957 15 SP MM NOT_NAMED 1957-02-08 12:00:00 TS -27.0000 -169.400 main 1504 1504 O________OO___ jtwc_sh SH201957 -27.0000 -169.400 -1 -27.0000 190.600 TC -27.0000 -169.400 1 10 144
1957035S11189 1957 15 SP MM NOT_NAMED 1957-02-08 15:00:00 TS -27.3343 -169.098 main 1543 1543 P________PP___ SH201957 -27.3449 -169.092 -1 -27.3449 -169.092 TC -27.3131 -169.111 1 8 138
1957035S11189 1957 15 SP MM NOT_NAMED 1957-02-08 18:00:00 TS -27.5863 -168.809 main 1582 1582 O________OP___ jtwc_sh SH201957 -27.6000 -168.800 -1 -27.6000 191.200 TC -27.5590 -168.827 1 7 132
1957035S11189 1957 15 SP MM NOT_NAMED 1957-02-08 21:00:00 TS -27.7917 -168.520 main 1611 1611 P________PP___ SH201957 -27.7998 -168.515 -1 -27.7998 -168.515 TC -27.7755 -168.530 1 7 128
1957035S11189 1957 15 SP MM NOT_NAMED 1957-02-09 00:00:00 TS -28.0000 -168.200 main 1635 1633 O________OO___ jtwc_sh SH201957 -28.0000 -168.200 -1 -28.0000 191.800 TC -28.0000 -168.200 1 8 129
1957035S11189 1957 15 SP MM NOT_NAMED 1957-02-09 03:00:00 TS -28.2906 -167.820 main 1640 1639 P________PP___ SH201957 -28.2849 -167.822 -1 -28.2849 -167.822 TC -28.3019 -167.815 1 9 131
1957035S11189 1957 15 SP MM NOT_NAMED 1957-02-09 06:00:00 TS -28.6050 -167.399 main 1646 1646 O________OP___ jtwc_sh SH201957 -28.6000 -167.400 -1 -28.6000 192.600 TC -28.6150 -167.396 1 10 129
1957035S11189 1957 15 SP MM NOT_NAMED 1957-02-09 09:00:00 TS -28.9118 -166.956 main 1654 1654 P________PP___ SH201957 -28.9074 -166.957 -1 -28.9074 -166.957 TC -28.9205 -166.953 1 10 127
1957035S11189 1957 15 SP MM NOT_NAMED 1957-02-09 12:00:00 TS -29.2000 -166.500 main 1670 1670 O________OO___ jtwc_sh SH201957 -29.2000 -166.500 -1 -29.2000 193.500 TC -29.2000 -166.500 1 10 125
1957035S11189 1957 15 SP MM NOT_NAMED 1957-02-09 15:00:00 TS -29.4615 -166.049 main 1688 1688 P________PP___ SH201957 -29.4723 -166.050 -1 -29.4723 -166.050 TC -29.4398 -166.048 1 9 122
1957035S11189 1957 15 SP MM NOT_NAMED 1957-02-09 18:00:00 TS -29.6820 -165.599 main 1706 1706 O________OP___ jtwc_sh SH201957 -29.7000 -165.600 -1 -29.7000 194.400 TC -29.6459 -165.598 1 9 117
1957035S11189 1957 15 SP MM NOT_NAMED 1957-02-09 21:00:00 TS -29.8549 -165.150 main 1732 1732 P________PP___ SH201957 -29.8678 -165.150 -1 -29.8678 -165.150 TC -29.8291 -165.149 1 8 112
1957035S11189 1957 15 SP MM NOT_NAMED 1957-02-10 00:00:00 TS -30.0000 -164.700 main 1758 O________OO___ jtwc_sh SH201957 -30.0000 -164.700 -1 -30.0000 195.300 TC -30.0000 -164.700 1 8 110

Digital Typhoon Data and Search

About IBTrACS Database

This database is a web-friendly format of International Best Track Archive for Climate Stewardship (IBTrACS), a global best track data archive curated by NOAA dating back to 1842.

Updated: 2021-10-21